Terminal Aerodrome Forecast
Issued by NWS Boston, MA

Home | Current Version | Previous Version | Text Only | Print | Product List | Glossary On
Versions: 1 2 3 4 5 6 7 8 9 10 11 12 13 14 15 16 17 18 19 20 21 22 23 24 25 26 27 28 29 30 31 32 33 34 35 36 37 38 39 40 41 42 43 44 45 46 47
000
FTUS41 KBOX 052320
TAFPVD
TAF
KPVD 052320Z 0600/0624 02015G28KT 6SM -RA BR OVC015
     FM060400 02010G21KT P6SM OVC015
     FM061000 02008KT P6SM OVC025
     FM061200 03010G19KT P6SM VCSH OVC015
     FM061700 07016KT P6SM VCSH OVC025
     FM061900 07015KT P6SM VCSH OVC015=

USA.gov is the U.S. government's official web portal to all federal, state and local government web resources and services.